Record high temperature 32.7°C Record low temperature -4.3°C Record high gust 50.0 mph Record high average 27.8 mph Record daily rain 998.6 mm Record low windchill -8.3°C Record high barometer 1042.1 hPa Record low barometer 973.0 hPa
Daily high pressure 990.0 hPa Daily low pressure 981.3 hPa Daily low windchill -0.1°C Daily high heat index 6.6°C Daily high gust speed 33.4 mph SW Daily high average speed 20.8 mph SW
Seaford Weather Data
LAST READING AT TIME: 4:30 AM DATE: 21 January 2021, time of next update: 5:00 am
Current WeatherNight time/Dry/Scattered clouds Current Temperature 5.7°C (42.3°F), Apparent temp 0.4°C
Maximum Temperature (since midnight)6.6°C at: 12:00 AM Minimum Temperature (since midnight)4.6°C at: 2:24 AM
Average windspeed (ten minute)11.5 mph Wind Direction (ten minute)WSW (239°)
Windchill Temperature 1.6°C Maximum Gust (last hour)22.0 mph at: 3:39 AM
Maximum Gust (since midnight)33.4 mph at: 1:17 AM Maximum 1 minute average (since midnight)20.8 mph at: 1:23 AM
Rainfall (last hour)0.0 mm Rainfall (since midnight)0.2 mm (0.01 in.)---
Rainfall This month 65.8 mm (2.59 in.) Rainfall To date this year 65.8 mm (2.59 in.)
Maximum rain per minute (last hour)0.0 mm/min Maximum rain per hour (last 6 hours)1.0 mm/hour
Yesterdays rainfall 6.8 mm DewPoint 2.0°C (Wet Bulb :4.2°C )
Humidity 77 %, Humidex 4.1°C Barometer corrected to msl989.9 hPa
Pressure change +1.1 hPa (last hour) Trend (last hour)RISING SLOWLY
Pressure change (last 12 hours)+0.7 hPa Pressure change (last 6 hours)+9.4 hPa
Current 00:00 hours of sunshine today, current sky: Night time/Dry/Scattered clouds
Sunshine hours for the year: 00:00 hrs Sunshine hours for the month: 00:00 hrs
Current evapotranspiration rate 0.8 mm per day. Yesterday's reading 0.5



Weather report/warning/Metars

Shoreham Airport, United Kingdom (EGKA) 50-50N 000-17W 0M
Jan 20, 2021 - 12:50 PM EST / 2021.01.20 1750 UTC
Wind: from the S (180 degrees) at 23 MPH (20 KT) gusting to 36 MPH (31 KT):0
Visibility: 4 mile(s):0
Sky conditions: partly cloudy
Temperature: 50 F (10 C)
Dew Point: 44 F (7 C)
Relative Humidity: 81%
Pressure (altimeter): 29.09 in. Hg (0985 hPa)
ob: EGKA 201750Z 18020G31KT 7000 SCT025 10/07 Q0985
cycle: 18
Yeovilton, United Kingdom (EGDY) 51-00N 002-38W 0M
Jan 20, 2021 - 10:50 PM EST / 2021.01.21 0350 UTC
Wind: from the SW (230 degrees) at 7 MPH (6 KT):0
Visibility: greater than 7 mile(s):0
Sky conditions: mostly clear
Temperature: 39 F (4 C)
Dew Point: 35 F (2 C)
Relative Humidity: 86%
Pressure (altimeter): 29.09 in. Hg (0985 hPa)
ob: EGDY 210350Z AUTO 23006KT 9999 FEW030/// 04/02 Q0985
cycle: 4
Luton Airport , United Kingdom (EGGW) 51-52N 000-22W
Jan 20, 2021 - 10:50 PM EST / 2021.01.21 0350 UTC
Wind: from the WSW (240 degrees) at 23 MPH (20 KT) gusting to 36 MPH (31 KT):0
Visibility: greater than 7 mile(s):0
Temperature: 37 F (3 C)
Dew Point: 33 F (1 C)
Relative Humidity: 86%
Pressure (altimeter): 29.00 in. Hg (0982 hPa)
ob: EGGW 210350Z AUTO 24020G31KT 9999 NCD 03/01 Q0982
cycle: 4
Bournemouth Airport, United Kingdom (EGHH) 50-47N 001-50W 0M
Jan 20, 2021 - 12:50 PM EST / 2021.01.20 1750 UTC
Wind: from the S (190 degrees) at 23 MPH (20 KT) gusting to 35 MPH (30 KT):0
Visibility: 2 mile(s):0
Sky conditions: mostly cloudy
Weather: rain; mist
Temperature: 50 F (10 C)
Dew Point: 48 F (9 C)
Relative Humidity: 93%
Pressure (altimeter): 28.97 in. Hg (0981 hPa)
ob: EGHH 201750Z 19020G30KT 4500 RA BR BKN009 BKN024 10/09 Q0981
cycle: 18
Guernsey Airport, United Kingdom (EGJB) 49-26N 002-36W 0M
Jan 20, 2021 - 10:50 PM EST / 2021.01.21 0350 UTC
Wind: from the W (260 degrees) at 24 MPH (21 KT):0
Visibility: greater than 7 mile(s):0
Sky conditions: mostly clear
Temperature: 44 F (7 C)
Dew Point: 37 F (3 C)
Relative Humidity: 75%
Pressure (altimeter): 29.23 in. Hg (0990 hPa)
ob: EGJB 210350Z 26021KT 9999 FEW020 07/03 Q0990
cycle: 4
Jersey Airport, United Kingdom (EGJJ) 49-13N 002-12W 0M
Jan 20, 2021 - 10:50 PM EST / 2021.01.21 0350 UTC
Wind: from the WSW (250 degrees) at 23 MPH (20 KT):0
Visibility: greater than 7 mile(s):0
Sky conditions: mostly cloudy
Temperature: 46 F (8 C)
Dew Point: 39 F (4 C)
Relative Humidity: 75%
Pressure (altimeter): 29.26 in. Hg (0991 hPa)
ob: EGJJ 210350Z AUTO 25020KT 9999 FEW023/// SCT028/// BKN043/// 08/04 Q0991
cycle: 4
London / Gatwick Airport, United Kingdom (EGKK) 51-09N 000-11W 0M
Jan 20, 2021 - 10:50 PM EST / 2021.01.21 0350 UTC
Wind: from the SW (230 degrees) at 14 MPH (12 KT):0
Visibility: greater than 7 mile(s):0
Sky conditions: mostly clear
Temperature: 39 F (4 C)
Dew Point: 33 F (1 C)
Relative Humidity: 80%
Pressure (altimeter): 29.09 in. Hg (0985 hPa)
ob: EGKK 210350Z 23012KT 9999 FEW021 04/01 Q0985
cycle: 4
London / Heathrow Airport, United Kingdom (EGLL) 51-29N 000-27W 0M
Jan 20, 2021 - 10:50 PM EST / 2021.01.21 0350 UTC
Wind: from the WSW (240 degrees) at 15 MPH (13 KT):0
Visibility: greater than 7 mile(s):0
Temperature: 39 F (4 C)
Dew Point: 33 F (1 C)
Relative Humidity: 80%
Pressure (altimeter): 29.06 in. Hg (0984 hPa)
ob: EGLL 210350Z AUTO 24013KT 9999 NCD 04/01 Q0984
cycle: 4
Southend-On-Sea , United Kingdom (EGMC) 51-34N 000-42E
Jan 20, 2021 - 10:20 PM EST / 2021.01.21 0320 UTC
Wind: from the WSW (240 degrees) at 21 MPH (18 KT) gusting to 33 MPH (29 KT):0
Visibility: greater than 7 mile(s):0
Sky conditions: partly cloudy
Temperature: 41 F (5 C)
Dew Point: 33 F (1 C)
Relative Humidity: 75%
Pressure (altimeter): 29.03 in. Hg (0983 hPa)
ob: EGMC 210320Z 24018G29KT 9999 SCT029 05/01 Q0983
cycle: 3
Lydd Airport , United Kingdom (EGMD) 50-57N 000-56E
Jan 20, 2021 - 10:50 PM EST / 2021.01.21 0350 UTC
Wind: from the WSW (250 degrees) at 22 MPH (19 KT):0
Visibility: greater than 7 mile(s):0
Temperature: 42 F (6 C)
Dew Point: 35 F (2 C)
Relative Humidity: 75%
Pressure (altimeter): 29.12 in. Hg (0986 hPa)
ob: EGMD 210350Z AUTO 25019KT 9999 NCD 06/02 Q0986
cycle: 4
Glasgow Airport, United Kingdom (EGPF) 55-52N 004-26W 0M
Jan 20, 2021 - 10:50 PM EST / 2021.01.21 0350 UTC
Wind: from the WSW (250 degrees) at 7 MPH (6 KT):0
Visibility: greater than 7 mile(s):0
Temperature: 32 F (0 C)
Windchill: 24 F (-4 C):1
Dew Point: 30 F (-1 C)
Relative Humidity: 92%
Pressure (altimeter): 28.67 in. Hg (0971 hPa)
ob: EGPF 210350Z AUTO 25006KT 9999 NCD 00/M01 Q0971
cycle: 4
Stansted Airport, United Kingdom (EGSS) 51-53N 000-14E 0M
Jan 20, 2021 - 10:50 PM EST / 2021.01.21 0350 UTC
Wind: from the WSW (240 degrees) at 20 MPH (17 KT):0
Visibility: greater than 7 mile(s):0
Sky conditions: mostly clear
Temperature: 37 F (3 C)
Dew Point: 33 F (1 C)
Relative Humidity: 86%
Pressure (altimeter): 29.00 in. Hg (0982 hPa)
ob: EGSS 210350Z AUTO 24017KT 9999 FEW022 03/01 Q0982
cycle: 4
Brize Norton, United Kingdom (EGVN) 51-45N 001-35W 0M
Jan 20, 2021 - 10:50 PM EST / 2021.01.21 0350 UTC
Wind: from the WSW (250 degrees) at 12 MPH (10 KT) gusting to 23 MPH (20 KT):0
Visibility: greater than 7 mile(s):0
Sky conditions: mostly clear
Temperature: 39 F (4 C)
Dew Point: 32 F (0 C)
Relative Humidity: 75%
Pressure (altimeter): 29.00 in. Hg (0982 hPa)
ob: EGVN 210350Z 25010G20KT 9999 FEW025 04/00 Q0982 NOSIG
cycle: 4



The data is logged at two minute intervals, but there is data recorded every minute. On the graph, the Blue line represents the average windspeed, the Red line is the maximum gust for that interval, and the Green line is what the wind has dropped off to in the same interval. Fuschia is the Barometer, and the dew point and Blue is humidity.

Use the RELOAD facility on your browser to retrieve the latest data.

Click here for a daily update of the averages/extremes to date for the month

Check *Live* Weather

Created by "Weather Display" software version 10.37S at this start time/date 15:16:31 12/01/2021